sensor_id;sensor_type;location;lat;lon;timestamp;P1;durP1;ratioP1;P2;durP2;ratioP2
7621;SDS011;3852;52.284;8.032;2022-11-14T00:00:38;54.43;;;29.03;;
7621;SDS011;3852;52.284;8.032;2022-11-14T00:03:05;53.03;;;28.60;;
7621;SDS011;3852;52.284;8.032;2022-11-14T00:05:32;54.57;;;29.00;;
7621;SDS011;3852;52.284;8.032;2022-11-14T00:08:04;55.87;;;29.33;;
7621;SDS011;3852;52.284;8.032;2022-11-14T00:10:31;51.53;;;27.63;;
7621;SDS011;3852;52.284;8.032;2022-11-14T00:12:57;55.57;;;27.50;;
7621;SDS011;3852;52.284;8.032;2022-11-14T00:15:23;57.03;;;29.70;;
7621;SDS011;3852;52.284;8.032;2022-11-14T00:17:49;53.97;;;27.67;;
7621;SDS011;3852;52.284;8.032;2022-11-14T00:20:17;53.87;;;27.97;;
7621;SDS011;3852;52.284;8.032;2022-11-14T00:22:43;54.87;;;28.27;;
7621;SDS011;3852;52.284;8.032;2022-11-14T00:25:09;59.10;;;29.57;;
7621;SDS011;3852;52.284;8.032;2022-11-14T00:27:36;56.97;;;27.77;;
7621;SDS011;3852;52.284;8.032;2022-11-14T00:30:01;60.00;;;30.17;;
7621;SDS011;3852;52.284;8.032;2022-11-14T00:32:28;61.37;;;30.43;;
7621;SDS011;3852;52.284;8.032;2022-11-14T00:34:55;50.63;;;26.47;;
7621;SDS011;3852;52.284;8.032;2022-11-14T00:37:21;59.63;;;28.83;;
7621;SDS011;3852;52.284;8.032;2022-11-14T00:39:46;58.80;;;29.83;;
7621;SDS011;3852;52.284;8.032;2022-11-14T00:42:12;56.83;;;28.40;;
7621;SDS011;3852;52.284;8.032;2022-11-14T00:44:38;57.77;;;28.80;;
7621;SDS011;3852;52.284;8.032;2022-11-14T00:47:04;57.97;;;28.63;;
7621;SDS011;3852;52.284;8.032;2022-11-14T00:49:30;54.57;;;27.97;;
7621;SDS011;3852;52.284;8.032;2022-11-14T00:51:55;58.63;;;29.53;;
7621;SDS011;3852;52.284;8.032;2022-11-14T00:54:21;59.57;;;28.83;;
7621;SDS011;3852;52.284;8.032;2022-11-14T00:56:47;53.37;;;27.53;;
7621;SDS011;3852;52.284;8.032;2022-11-14T00:59:13;56.03;;;28.93;;
7621;SDS011;3852;52.284;8.032;2022-11-14T01:01:39;53.77;;;27.40;;
7621;SDS011;3852;52.284;8.032;2022-11-14T01:04:04;52.60;;;26.53;;
7621;SDS011;3852;52.284;8.032;2022-11-14T01:06:30;53.70;;;27.00;;
7621;SDS011;3852;52.284;8.032;2022-11-14T01:08:59;56.20;;;27.73;;
7621;SDS011;3852;52.284;8.032;2022-11-14T01:11:24;58.87;;;27.77;;
7621;SDS011;3852;52.284;8.032;2022-11-14T01:13:50;52.97;;;26.00;;
7621;SDS011;3852;52.284;8.032;2022-11-14T01:16:16;54.83;;;28.43;;
7621;SDS011;3852;52.284;8.032;2022-11-14T01:18:44;54.30;;;27.77;;
7621;SDS011;3852;52.284;8.032;2022-11-14T01:21:11;54.07;;;27.00;;
7621;SDS011;3852;52.284;8.032;2022-11-14T01:23:38;51.00;;;25.73;;
7621;SDS011;3852;52.284;8.032;2022-11-14T01:26:05;54.23;;;27.03;;
7621;SDS011;3852;52.284;8.032;2022-11-14T01:28:36;52.23;;;26.97;;
7621;SDS011;3852;52.284;8.032;2022-11-14T01:31:17;57.97;;;28.17;;
7621;SDS011;3852;52.284;8.032;2022-11-14T01:33:49;52.13;;;26.43;;
7621;SDS011;3852;52.284;8.032;2022-11-14T01:36:17;54.47;;;26.07;;
7621;SDS011;3852;52.284;8.032;2022-11-14T01:38:44;55.03;;;27.63;;
7621;SDS011;3852;52.284;8.032;2022-11-14T01:41:11;57.03;;;27.73;;
7621;SDS011;3852;52.284;8.032;2022-11-14T01:43:39;55.07;;;27.13;;
7621;SDS011;3852;52.284;8.032;2022-11-14T01:49:02;53.63;;;27.27;;
7621;SDS011;3852;52.284;8.032;2022-11-14T01:51:44;51.97;;;27.13;;
7621;SDS011;3852;52.284;8.032;2022-11-14T01:54:26;54.27;;;26.50;;
7621;SDS011;3852;52.284;8.032;2022-11-14T01:56:58;52.23;;;26.57;;
7621;SDS011;3852;52.284;8.032;2022-11-14T01:59:30;53.37;;;26.50;;
7621;SDS011;3852;52.284;8.032;2022-11-14T02:02:13;57.00;;;26.83;;
7621;SDS011;3852;52.284;8.032;2022-11-14T02:04:47;53.17;;;26.90;;
7621;SDS011;3852;52.284;8.032;2022-11-14T02:07:24;55.77;;;26.50;;
7621;SDS011;3852;52.284;8.032;2022-11-14T02:09:52;51.93;;;26.83;;
7621;SDS011;3852;52.284;8.032;2022-11-14T02:12:19;56.23;;;28.07;;
7621;SDS011;3852;52.284;8.032;2022-11-14T02:14:46;50.97;;;26.67;;
7621;SDS011;3852;52.284;8.032;2022-11-14T02:17:17;47.40;;;25.63;;
7621;SDS011;3852;52.284;8.032;2022-11-14T02:19:44;49.60;;;25.67;;
7621;SDS011;3852;52.284;8.032;2022-11-14T02:22:14;49.60;;;25.70;;
7621;SDS011;3852;52.284;8.032;2022-11-14T02:24:40;50.80;;;25.93;;
7621;SDS011;3852;52.284;8.032;2022-11-14T02:27:07;54.30;;;27.17;;
7621;SDS011;3852;52.284;8.032;2022-11-14T02:29:34;52.07;;;26.20;;
7621;SDS011;3852;52.284;8.032;2022-11-14T02:32:01;52.83;;;25.57;;
7621;SDS011;3852;52.284;8.032;2022-11-14T02:34:27;44.83;;;25.23;;
7621;SDS011;3852;52.284;8.032;2022-11-14T02:36:53;47.40;;;26.33;;
7621;SDS011;3852;52.284;8.032;2022-11-14T02:39:19;44.53;;;24.90;;
7621;SDS011;3852;52.284;8.032;2022-11-14T02:41:45;47.70;;;25.53;;
7621;SDS011;3852;52.284;8.032;2022-11-14T02:44:11;49.97;;;25.83;;
7621;SDS011;3852;52.284;8.032;2022-11-14T02:46:37;46.80;;;24.77;;
7621;SDS011;3852;52.284;8.032;2022-11-14T02:49:03;46.63;;;25.63;;
7621;SDS011;3852;52.284;8.032;2022-11-14T02:51:29;48.20;;;25.07;;
7621;SDS011;3852;52.284;8.032;2022-11-14T02:53:54;45.97;;;24.20;;
7621;SDS011;3852;52.284;8.032;2022-11-14T02:56:20;46.10;;;24.87;;
7621;SDS011;3852;52.284;8.032;2022-11-14T02:58:46;47.83;;;25.30;;
7621;SDS011;3852;52.284;8.032;2022-11-14T03:01:12;44.23;;;24.33;;
7621;SDS011;3852;52.284;8.032;2022-11-14T03:03:38;48.50;;;23.73;;
7621;SDS011;3852;52.284;8.032;2022-11-14T03:06:04;45.93;;;24.90;;
7621;SDS011;3852;52.284;8.032;2022-11-14T03:08:30;47.70;;;24.10;;
7621;SDS011;3852;52.284;8.032;2022-11-14T03:11:02;47.07;;;24.87;;
7621;SDS011;3852;52.284;8.032;2022-11-14T03:13:33;44.43;;;24.00;;
7621;SDS011;3852;52.284;8.032;2022-11-14T03:16:06;45.97;;;25.37;;
7621;SDS011;3852;52.284;8.032;2022-11-14T03:18:35;46.17;;;25.70;;
7621;SDS011;3852;52.284;8.032;2022-11-14T03:21:05;48.30;;;24.63;;
7621;SDS011;3852;52.284;8.032;2022-11-14T03:23:32;43.33;;;23.30;;
7621;SDS011;3852;52.284;8.032;2022-11-14T03:25:59;43.33;;;24.03;;
7621;SDS011;3852;52.284;8.032;2022-11-14T03:28:26;43.40;;;23.10;;
7621;SDS011;3852;52.284;8.032;2022-11-14T03:30:52;43.40;;;23.97;;
7621;SDS011;3852;52.284;8.032;2022-11-14T03:33:19;40.83;;;22.87;;
7621;SDS011;3852;52.284;8.032;2022-11-14T03:35:45;43.17;;;23.40;;
7621;SDS011;3852;52.284;8.032;2022-11-14T03:38:10;41.10;;;23.60;;
7621;SDS011;3852;52.284;8.032;2022-11-14T03:40:39;43.73;;;24.23;;
7621;SDS011;3852;52.284;8.032;2022-11-14T03:43:05;43.33;;;22.70;;
7621;SDS011;3852;52.284;8.032;2022-11-14T03:45:31;42.20;;;23.13;;
7621;SDS011;3852;52.284;8.032;2022-11-14T03:47:57;41.90;;;23.53;;
7621;SDS011;3852;52.284;8.032;2022-11-14T03:50:23;40.33;;;22.83;;
7621;SDS011;3852;52.284;8.032;2022-11-14T03:52:48;40.70;;;22.63;;
7621;SDS011;3852;52.284;8.032;2022-11-14T03:55:15;41.33;;;22.40;;
7621;SDS011;3852;52.284;8.032;2022-11-14T03:57:41;39.30;;;22.17;;
7621;SDS011;3852;52.284;8.032;2022-11-14T04:00:07;37.97;;;21.83;;
7621;SDS011;3852;52.284;8.032;2022-11-14T04:02:34;36.00;;;20.83;;
7621;SDS011;3852;52.284;8.032;2022-11-14T04:05:00;36.13;;;21.50;;
7621;SDS011;3852;52.284;8.032;2022-11-14T04:07:26;44.23;;;24.03;;
7621;SDS011;3852;52.284;8.032;2022-11-14T04:09:51;39.60;;;22.37;;
7621;SDS011;3852;52.284;8.032;2022-11-14T04:12:17;39.50;;;22.83;;
7621;SDS011;3852;52.284;8.032;2022-11-14T04:14:43;40.70;;;22.30;;
7621;SDS011;3852;52.284;8.032;2022-11-14T04:17:09;42.57;;;23.03;;
7621;SDS011;3852;52.284;8.032;2022-11-14T04:19:37;38.57;;;21.67;;
7621;SDS011;3852;52.284;8.032;2022-11-14T04:22:03;39.87;;;21.77;;
7621;SDS011;3852;52.284;8.032;2022-11-14T04:24:30;37.90;;;22.53;;
7621;SDS011;3852;52.284;8.032;2022-11-14T04:26:56;37.63;;;22.07;;
7621;SDS011;3852;52.284;8.032;2022-11-14T04:29:21;38.30;;;22.10;;
7621;SDS011;3852;52.284;8.032;2022-11-14T04:31:47;39.63;;;21.90;;
7621;SDS011;3852;52.284;8.032;2022-11-14T04:34:15;40.03;;;21.10;;
7621;SDS011;3852;52.284;8.032;2022-11-14T04:36:41;37.80;;;20.37;;
7621;SDS011;3852;52.284;8.032;2022-11-14T04:39:07;41.63;;;22.67;;
7621;SDS011;3852;52.284;8.032;2022-11-14T04:41:33;36.90;;;21.83;;
7621;SDS011;3852;52.284;8.032;2022-11-14T04:43:58;37.43;;;21.07;;
7621;SDS011;3852;52.284;8.032;2022-11-14T04:46:25;37.87;;;21.47;;
7621;SDS011;3852;52.284;8.032;2022-11-14T04:48:50;40.07;;;21.77;;
7621;SDS011;3852;52.284;8.032;2022-11-14T04:51:16;33.80;;;20.37;;
7621;SDS011;3852;52.284;8.032;2022-11-14T04:53:42;35.13;;;19.73;;
7621;SDS011;3852;52.284;8.032;2022-11-14T04:56:10;34.87;;;21.57;;
7621;SDS011;3852;52.284;8.032;2022-11-14T04:58:36;37.70;;;21.00;;
7621;SDS011;3852;52.284;8.032;2022-11-14T05:01:20;35.87;;;20.10;;
7621;SDS011;3852;52.284;8.032;2022-11-14T05:03:46;38.03;;;21.63;;
7621;SDS011;3852;52.284;8.032;2022-11-14T05:06:11;36.40;;;21.57;;
7621;SDS011;3852;52.284;8.032;2022-11-14T05:08:37;36.97;;;21.30;;
7621;SDS011;3852;52.284;8.032;2022-11-14T05:11:03;38.00;;;21.67;;
7621;SDS011;3852;52.284;8.032;2022-11-14T05:13:29;39.97;;;21.30;;
7621;SDS011;3852;52.284;8.032;2022-11-14T05:15:59;39.40;;;22.13;;
7621;SDS011;3852;52.284;8.032;2022-11-14T05:18:25;38.90;;;21.10;;
7621;SDS011;3852;52.284;8.032;2022-11-14T05:20:51;39.47;;;21.97;;
7621;SDS011;3852;52.284;8.032;2022-11-14T05:23:18;42.53;;;23.13;;
7621;SDS011;3852;52.284;8.032;2022-11-14T05:25:46;39.60;;;22.67;;
7621;SDS011;3852;52.284;8.032;2022-11-14T05:28:17;38.87;;;21.80;;
7621;SDS011;3852;52.284;8.032;2022-11-14T05:30:43;39.37;;;22.50;;
7621;SDS011;3852;52.284;8.032;2022-11-14T05:33:10;40.50;;;22.03;;
7621;SDS011;3852;52.284;8.032;2022-11-14T05:35:36;41.33;;;21.37;;
7621;SDS011;3852;52.284;8.032;2022-11-14T05:38:02;38.23;;;21.57;;
7621;SDS011;3852;52.284;8.032;2022-11-14T05:40:28;38.93;;;21.93;;
7621;SDS011;3852;52.284;8.032;2022-11-14T05:42:54;38.03;;;21.40;;
7621;SDS011;3852;52.284;8.032;2022-11-14T05:45:20;39.53;;;21.70;;
7621;SDS011;3852;52.284;8.032;2022-11-14T05:47:46;35.73;;;20.43;;
7621;SDS011;3852;52.284;8.032;2022-11-14T05:50:12;35.53;;;20.70;;
7621;SDS011;3852;52.284;8.032;2022-11-14T05:52:38;33.73;;;20.13;;
7621;SDS011;3852;52.284;8.032;2022-11-14T05:55:04;35.47;;;19.73;;
7621;SDS011;3852;52.284;8.032;2022-11-14T05:57:30;33.83;;;20.07;;
7621;SDS011;3852;52.284;8.032;2022-11-14T05:59:56;34.80;;;19.30;;
7621;SDS011;3852;52.284;8.032;2022-11-14T06:02:23;34.33;;;20.17;;
7621;SDS011;3852;52.284;8.032;2022-11-14T06:04:49;32.53;;;18.57;;
7621;SDS011;3852;52.284;8.032;2022-11-14T06:07:15;36.50;;;19.90;;
7621;SDS011;3852;52.284;8.032;2022-11-14T06:09:41;38.13;;;20.53;;
7621;SDS011;3852;52.284;8.032;2022-11-14T06:12:06;35.50;;;20.70;;
7621;SDS011;3852;52.284;8.032;2022-11-14T06:14:32;38.00;;;20.03;;
7621;SDS011;3852;52.284;8.032;2022-11-14T06:16:58;32.20;;;19.43;;
7621;SDS011;3852;52.284;8.032;2022-11-14T06:19:24;31.77;;;19.00;;
7621;SDS011;3852;52.284;8.032;2022-11-14T06:21:50;34.90;;;19.53;;
7621;SDS011;3852;52.284;8.032;2022-11-14T06:24:15;36.70;;;20.07;;
7621;SDS011;3852;52.284;8.032;2022-11-14T06:26:41;34.43;;;20.17;;
7621;SDS011;3852;52.284;8.032;2022-11-14T06:29:08;33.33;;;19.23;;
7621;SDS011;3852;52.284;8.032;2022-11-14T06:31:36;33.33;;;19.60;;
7621;SDS011;3852;52.284;8.032;2022-11-14T06:34:03;36.97;;;20.17;;
7621;SDS011;3852;52.284;8.032;2022-11-14T06:36:30;34.53;;;19.80;;
7621;SDS011;3852;52.284;8.032;2022-11-14T06:38:56;32.60;;;20.20;;
7621;SDS011;3852;52.284;8.032;2022-11-14T06:41:22;32.37;;;19.40;;
7621;SDS011;3852;52.284;8.032;2022-11-14T06:43:48;34.97;;;18.97;;
7621;SDS011;3852;52.284;8.032;2022-11-14T06:46:17;36.60;;;18.93;;
7621;SDS011;3852;52.284;8.032;2022-11-14T06:48:45;30.50;;;18.40;;
7621;SDS011;3852;52.284;8.032;2022-11-14T06:51:12;31.97;;;18.87;;
7621;SDS011;3852;52.284;8.032;2022-11-14T06:53:40;30.63;;;18.90;;
7621;SDS011;3852;52.284;8.032;2022-11-14T06:56:11;31.13;;;19.17;;
7621;SDS011;3852;52.284;8.032;2022-11-14T06:58:40;34.43;;;19.77;;
7621;SDS011;3852;52.284;8.032;2022-11-14T07:01:30;37.00;;;19.57;;
7621;SDS011;3852;52.284;8.032;2022-11-14T07:03:55;29.13;;;17.27;;
7621;SDS011;3852;52.284;8.032;2022-11-14T07:06:26;34.23;;;18.83;;
7621;SDS011;3852;52.284;8.032;2022-11-14T07:08:54;34.27;;;18.87;;
7621;SDS011;3852;52.284;8.032;2022-11-14T07:11:22;36.60;;;19.13;;
7621;SDS011;3852;52.284;8.032;2022-11-14T07:13:59;30.30;;;18.87;;
7621;SDS011;3852;52.284;8.032;2022-11-14T07:16:28;35.17;;;19.30;;
7621;SDS011;3852;52.284;8.032;2022-11-14T07:19:02;30.70;;;17.67;;
7621;SDS011;3852;52.284;8.032;2022-11-14T07:21:33;34.73;;;18.27;;
7621;SDS011;3852;52.284;8.032;2022-11-14T07:23:59;32.57;;;18.43;;
7621;SDS011;3852;52.284;8.032;2022-11-14T07:26:25;31.73;;;18.73;;
7621;SDS011;3852;52.284;8.032;2022-11-14T07:28:51;31.57;;;18.90;;
7621;SDS011;3852;52.284;8.032;2022-11-14T07:31:17;30.40;;;17.20;;
7621;SDS011;3852;52.284;8.032;2022-11-14T07:33:44;32.67;;;19.23;;
7621;SDS011;3852;52.284;8.032;2022-11-14T07:36:11;36.00;;;19.87;;
7621;SDS011;3852;52.284;8.032;2022-11-14T07:38:38;29.57;;;17.57;;
7621;SDS011;3852;52.284;8.032;2022-11-14T07:41:09;34.37;;;18.67;;
7621;SDS011;3852;52.284;8.032;2022-11-14T07:43:37;34.23;;;18.60;;
7621;SDS011;3852;52.284;8.032;2022-11-14T07:46:06;32.40;;;18.40;;
7621;SDS011;3852;52.284;8.032;2022-11-14T07:48:39;31.30;;;17.77;;
7621;SDS011;3852;52.284;8.032;2022-11-14T07:51:08;32.90;;;18.23;;
7621;SDS011;3852;52.284;8.032;2022-11-14T07:53:39;29.43;;;17.93;;
7621;SDS011;3852;52.284;8.032;2022-11-14T07:56:05;34.00;;;17.67;;
7621;SDS011;3852;52.284;8.032;2022-11-14T07:58:37;29.03;;;17.40;;
7621;SDS011;3852;52.284;8.032;2022-11-14T08:01:04;27.67;;;16.33;;
7621;SDS011;3852;52.284;8.032;2022-11-14T08:03:33;31.97;;;18.90;;
7621;SDS011;3852;52.284;8.032;2022-11-14T08:06:00;28.37;;;17.47;;
7621;SDS011;3852;52.284;8.032;2022-11-14T08:08:34;29.17;;;17.67;;
7621;SDS011;3852;52.284;8.032;2022-11-14T08:11:01;33.23;;;18.73;;
7621;SDS011;3852;52.284;8.032;2022-11-14T08:13:27;32.27;;;18.07;;
7621;SDS011;3852;52.284;8.032;2022-11-14T08:15:54;30.93;;;18.93;;
7621;SDS011;3852;52.284;8.032;2022-11-14T08:18:20;30.23;;;18.83;;
7621;SDS011;3852;52.284;8.032;2022-11-14T08:20:46;33.23;;;18.77;;
7621;SDS011;3852;52.284;8.032;2022-11-14T08:23:12;28.67;;;17.40;;
7621;SDS011;3852;52.284;8.032;2022-11-14T08:25:38;27.70;;;17.07;;
7621;SDS011;3852;52.284;8.032;2022-11-14T08:28:05;31.67;;;18.57;;
7621;SDS011;3852;52.284;8.032;2022-11-14T08:30:31;31.00;;;17.90;;
7621;SDS011;3852;52.284;8.032;2022-11-14T08:33:00;33.93;;;19.40;;
7621;SDS011;3852;52.284;8.032;2022-11-14T08:35:27;31.47;;;19.53;;
7621;SDS011;3852;52.284;8.032;2022-11-14T08:37:53;31.80;;;18.97;;
7621;SDS011;3852;52.284;8.032;2022-11-14T08:40:19;34.07;;;19.93;;
7621;SDS011;3852;52.284;8.032;2022-11-14T08:42:45;32.53;;;18.90;;
7621;SDS011;3852;52.284;8.032;2022-11-14T08:45:11;35.27;;;20.27;;
7621;SDS011;3852;52.284;8.032;2022-11-14T08:47:37;31.60;;;19.27;;
7621;SDS011;3852;52.284;8.032;2022-11-14T08:50:02;32.37;;;17.87;;
7621;SDS011;3852;52.284;8.032;2022-11-14T08:52:29;34.10;;;19.07;;
7621;SDS011;3852;52.284;8.032;2022-11-14T08:54:55;33.00;;;19.17;;
7621;SDS011;3852;52.284;8.032;2022-11-14T08:57:20;30.63;;;19.00;;
7621;SDS011;3852;52.284;8.032;2022-11-14T08:59:46;30.83;;;18.67;;
7621;SDS011;3852;52.284;8.032;2022-11-14T09:02:12;30.83;;;19.33;;
7621;SDS011;3852;52.284;8.032;2022-11-14T09:04:38;31.07;;;18.00;;
7621;SDS011;3852;52.284;8.032;2022-11-14T09:07:07;29.43;;;17.50;;
7621;SDS011;3852;52.284;8.032;2022-11-14T09:09:33;32.33;;;18.63;;
7621;SDS011;3852;52.284;8.032;2022-11-14T09:11:59;31.20;;;18.17;;
7621;SDS011;3852;52.284;8.032;2022-11-14T09:14:27;26.53;;;17.03;;
7621;SDS011;3852;52.284;8.032;2022-11-14T09:16:53;27.70;;;16.83;;
7621;SDS011;3852;52.284;8.032;2022-11-14T09:19:18;28.90;;;16.97;;
7621;SDS011;3852;52.284;8.032;2022-11-14T09:21:44;28.77;;;17.60;;
7621;SDS011;3852;52.284;8.032;2022-11-14T09:24:10;27.80;;;16.83;;
7621;SDS011;3852;52.284;8.032;2022-11-14T09:26:36;29.20;;;17.83;;
7621;SDS011;3852;52.284;8.032;2022-11-14T09:29:02;26.33;;;17.00;;
7621;SDS011;3852;52.284;8.032;2022-11-14T09:31:29;27.40;;;18.00;;
7621;SDS011;3852;52.284;8.032;2022-11-14T09:33:55;28.40;;;17.90;;
7621;SDS011;3852;52.284;8.032;2022-11-14T09:36:21;29.43;;;18.47;;
7621;SDS011;3852;52.284;8.032;2022-11-14T09:38:47;27.33;;;16.93;;
7621;SDS011;3852;52.284;8.032;2022-11-14T09:47:09;27.10;;;16.97;;
7621;SDS011;3852;52.284;8.032;2022-11-14T09:49:40;26.90;;;17.03;;
7621;SDS011;3852;52.284;8.032;2022-11-14T09:54:50;29.27;;;17.63;;
7621;SDS011;3852;52.284;8.032;2022-11-14T09:57:20;28.47;;;18.13;;
7621;SDS011;3852;52.284;8.032;2022-11-14T09:59:48;26.03;;;16.90;;
7621;SDS011;3852;52.284;8.032;2022-11-14T10:16:58;23.77;;;16.17;;
7621;SDS011;3852;52.284;8.032;2022-11-14T10:31:05;24.60;;;17.00;;
7621;SDS011;3852;52.284;8.032;2022-11-14T10:42:42;23.13;;;15.67;;
7621;SDS011;3852;52.284;8.032;2022-11-14T10:45:17;21.77;;;15.23;;
7621;SDS011;3852;52.284;8.032;2022-11-14T10:47:58;24.70;;;16.20;;
7621;SDS011;3852;52.284;8.032;2022-11-14T10:56:24;21.70;;;15.47;;
7621;SDS011;3852;52.284;8.032;2022-11-14T10:58:50;22.90;;;15.93;;
7621;SDS011;3852;52.284;8.032;2022-11-14T11:04:23;18.10;;;13.70;;
7621;SDS011;3852;52.284;8.032;2022-11-14T11:06:56;21.50;;;15.80;;
7621;SDS011;3852;52.284;8.032;2022-11-14T11:10:23;21.70;;;15.73;;
7621;SDS011;3852;52.284;8.032;2022-11-14T11:13:11;23.73;;;16.10;;
7621;SDS011;3852;52.284;8.032;2022-11-14T11:15:54;21.27;;;15.00;;
7621;SDS011;3852;52.284;8.032;2022-11-14T11:21:05;21.23;;;15.33;;
7621;SDS011;3852;52.284;8.032;2022-11-14T11:23:34;23.70;;;16.10;;
7621;SDS011;3852;52.284;8.032;2022-11-14T11:26:06;17.50;;;13.77;;
7621;SDS011;3852;52.284;8.032;2022-11-14T11:28:41;23.23;;;15.53;;
7621;SDS011;3852;52.284;8.032;2022-11-14T11:31:08;19.80;;;14.33;;
7621;SDS011;3852;52.284;8.032;2022-11-14T11:33:36;20.80;;;14.53;;
7621;SDS011;3852;52.284;8.032;2022-11-14T11:38:46;18.80;;;13.27;;
7621;SDS011;3852;52.284;8.032;2022-11-14T11:43:49;19.10;;;14.17;;
7621;SDS011;3852;52.284;8.032;2022-11-14T11:49:09;17.83;;;13.87;;
7621;SDS011;3852;52.284;8.032;2022-11-14T11:51:44;19.37;;;14.23;;
7621;SDS011;3852;52.284;8.032;2022-11-14T11:54:21;18.50;;;13.17;;
7621;SDS011;3852;52.284;8.032;2022-11-14T11:56:55;17.83;;;13.27;;
7621;SDS011;3852;52.284;8.032;2022-11-14T11:59:45;17.77;;;13.43;;
7621;SDS011;3852;52.284;8.032;2022-11-14T12:04:53;16.60;;;12.63;;
7621;SDS011;3852;52.284;8.032;2022-11-14T12:07:22;18.23;;;14.17;;
7621;SDS011;3852;52.284;8.032;2022-11-14T12:10:02;19.33;;;13.43;;
7621;SDS011;3852;52.284;8.032;2022-11-14T12:12:57;18.57;;;14.03;;
7621;SDS011;3852;52.284;8.032;2022-11-14T12:27:21;19.63;;;13.17;;
7621;SDS011;3852;52.284;8.032;2022-11-14T12:30:20;19.23;;;13.43;;
7621;SDS011;3852;52.284;8.032;2022-11-14T12:32:52;16.20;;;12.63;;
7621;SDS011;3852;52.284;8.032;2022-11-14T12:37:54;18.57;;;13.33;;
7621;SDS011;3852;52.284;8.032;2022-11-14T12:43:00;17.20;;;12.63;;
7621;SDS011;3852;52.284;8.032;2022-11-14T12:45:54;15.20;;;11.87;;
7621;SDS011;3852;52.284;8.032;2022-11-14T12:50:54;14.43;;;11.33;;
7621;SDS011;3852;52.284;8.032;2022-11-14T13:13:10;14.57;;;11.10;;
7621;SDS011;3852;52.284;8.032;2022-11-14T13:15:57;12.37;;;10.50;;
7621;SDS011;3852;52.284;8.032;2022-11-14T13:27:29;13.17;;;9.77;;
7621;SDS011;3852;52.284;8.032;2022-11-14T13:29:58;15.23;;;11.43;;
7621;SDS011;3852;52.284;8.032;2022-11-14T13:35:15;14.33;;;10.90;;
7621;SDS011;3852;52.284;8.032;2022-11-14T13:41:32;13.23;;;10.43;;
7621;SDS011;3852;52.284;8.032;2022-11-14T13:52:44;12.77;;;10.70;;
7621;SDS011;3852;52.284;8.032;2022-11-14T13:55:18;13.07;;;10.47;;
7621;SDS011;3852;52.284;8.032;2022-11-14T14:01:01;13.97;;;10.53;;
7621;SDS011;3852;52.284;8.032;2022-11-14T14:09:36;11.90;;;10.60;;
7621;SDS011;3852;52.284;8.032;2022-11-14T14:12:47;13.17;;;10.23;;
7621;SDS011;3852;52.284;8.032;2022-11-14T14:21:27;14.40;;;11.30;;
7621;SDS011;3852;52.284;8.032;2022-11-14T14:29:42;15.10;;;10.77;;
7621;SDS011;3852;52.284;8.032;2022-11-14T14:32:24;12.50;;;10.07;;
7621;SDS011;3852;52.284;8.032;2022-11-14T14:34:50;12.83;;;11.00;;
7621;SDS011;3852;52.284;8.032;2022-11-14T14:37:24;12.77;;;10.70;;
7621;SDS011;3852;52.284;8.032;2022-11-14T14:42:33;13.90;;;10.77;;
7621;SDS011;3852;52.284;8.032;2022-11-14T14:45:03;15.93;;;10.90;;
7621;SDS011;3852;52.284;8.032;2022-11-14T14:47:41;16.87;;;11.30;;
7621;SDS011;3852;52.284;8.032;2022-11-14T14:52:45;12.43;;;10.03;;
7621;SDS011;3852;52.284;8.032;2022-11-14T14:55:56;11.57;;;10.27;;
7621;SDS011;3852;52.284;8.032;2022-11-14T14:58:43;13.37;;;9.93;;
7621;SDS011;3852;52.284;8.032;2022-11-14T15:01:13;14.07;;;10.97;;
7621;SDS011;3852;52.284;8.032;2022-11-14T15:03:46;13.07;;;10.87;;
7621;SDS011;3852;52.284;8.032;2022-11-14T15:09:02;12.47;;;10.83;;
7621;SDS011;3852;52.284;8.032;2022-11-14T15:11:42;14.47;;;11.50;;
7621;SDS011;3852;52.284;8.032;2022-11-14T15:14:11;11.73;;;10.50;;
7621;SDS011;3852;52.284;8.032;2022-11-14T15:16:41;13.67;;;10.73;;
7621;SDS011;3852;52.284;8.032;2022-11-14T15:19:12;12.63;;;10.13;;
7621;SDS011;3852;52.284;8.032;2022-11-14T15:21:42;14.20;;;10.60;;
7621;SDS011;3852;52.284;8.032;2022-11-14T15:26:43;12.53;;;10.90;;
7621;SDS011;3852;52.284;8.032;2022-11-14T15:29:21;15.80;;;10.83;;
7621;SDS011;3852;52.284;8.032;2022-11-14T15:31:54;12.63;;;10.57;;
7621;SDS011;3852;52.284;8.032;2022-11-14T15:34:30;13.63;;;10.53;;
7621;SDS011;3852;52.284;8.032;2022-11-14T15:39:42;14.17;;;11.40;;
7621;SDS011;3852;52.284;8.032;2022-11-14T15:42:19;14.33;;;10.70;;
7621;SDS011;3852;52.284;8.032;2022-11-14T15:44:55;13.90;;;10.80;;
7621;SDS011;3852;52.284;8.032;2022-11-14T15:47:28;14.27;;;11.23;;
7621;SDS011;3852;52.284;8.032;2022-11-14T15:49:59;13.50;;;10.80;;
7621;SDS011;3852;52.284;8.032;2022-11-14T15:55:41;13.87;;;10.63;;
7621;SDS011;3852;52.284;8.032;2022-11-14T15:58:10;13.30;;;10.80;;
7621;SDS011;3852;52.284;8.032;2022-11-14T16:00:38;14.00;;;10.70;;
7621;SDS011;3852;52.284;8.032;2022-11-14T16:03:16;14.93;;;11.17;;
7621;SDS011;3852;52.284;8.032;2022-11-14T16:05:45;15.33;;;10.73;;
7621;SDS011;3852;52.284;8.032;2022-11-14T16:08:11;13.20;;;10.53;;
7621;SDS011;3852;52.284;8.032;2022-11-14T16:10:37;13.20;;;10.90;;
7621;SDS011;3852;52.284;8.032;2022-11-14T16:13:03;13.73;;;11.23;;
7621;SDS011;3852;52.284;8.032;2022-11-14T16:15:29;13.17;;;10.83;;
7621;SDS011;3852;52.284;8.032;2022-11-14T16:17:55;13.77;;;10.67;;
7621;SDS011;3852;52.284;8.032;2022-11-14T16:20:26;15.70;;;10.73;;
7621;SDS011;3852;52.284;8.032;2022-11-14T16:22:54;15.10;;;10.70;;
7621;SDS011;3852;52.284;8.032;2022-11-14T16:25:24;14.97;;;11.80;;
7621;SDS011;3852;52.284;8.032;2022-11-14T16:27:55;12.97;;;10.83;;
7621;SDS011;3852;52.284;8.032;2022-11-14T16:30:21;12.17;;;10.13;;
7621;SDS011;3852;52.284;8.032;2022-11-14T16:32:49;12.13;;;10.10;;
7621;SDS011;3852;52.284;8.032;2022-11-14T16:35:23;12.47;;;10.27;;
7621;SDS011;3852;52.284;8.032;2022-11-14T16:37:51;12.13;;;10.30;;
7621;SDS011;3852;52.284;8.032;2022-11-14T16:40:23;13.40;;;11.00;;
7621;SDS011;3852;52.284;8.032;2022-11-14T16:42:55;13.50;;;11.00;;
7621;SDS011;3852;52.284;8.032;2022-11-14T16:45:23;14.13;;;11.23;;
7621;SDS011;3852;52.284;8.032;2022-11-14T16:47:50;14.33;;;10.50;;
7621;SDS011;3852;52.284;8.032;2022-11-14T16:50:19;13.97;;;10.27;;
7621;SDS011;3852;52.284;8.032;2022-11-14T16:52:45;13.53;;;10.60;;
7621;SDS011;3852;52.284;8.032;2022-11-14T16:55:11;13.93;;;10.30;;
7621;SDS011;3852;52.284;8.032;2022-11-14T16:57:38;12.83;;;10.03;;
7621;SDS011;3852;52.284;8.032;2022-11-14T17:00:05;14.93;;;11.53;;
7621;SDS011;3852;52.284;8.032;2022-11-14T17:02:38;15.87;;;11.70;;
7621;SDS011;3852;52.284;8.032;2022-11-14T17:05:05;23.90;;;14.70;;
7621;SDS011;3852;52.284;8.032;2022-11-14T17:07:31;22.27;;;14.90;;
7621;SDS011;3852;52.284;8.032;2022-11-14T17:09:57;15.77;;;11.73;;
7621;SDS011;3852;52.284;8.032;2022-11-14T17:12:28;14.70;;;11.53;;
7621;SDS011;3852;52.284;8.032;2022-11-14T17:14:56;12.50;;;10.57;;
7621;SDS011;3852;52.284;8.032;2022-11-14T17:17:21;15.20;;;11.03;;
7621;SDS011;3852;52.284;8.032;2022-11-14T17:19:47;13.43;;;9.93;;
7621;SDS011;3852;52.284;8.032;2022-11-14T17:22:14;12.10;;;9.67;;
7621;SDS011;3852;52.284;8.032;2022-11-14T17:24:42;11.60;;;9.73;;
7621;SDS011;3852;52.284;8.032;2022-11-14T17:27:08;13.67;;;10.50;;
7621;SDS011;3852;52.284;8.032;2022-11-14T17:29:36;11.53;;;9.50;;
7621;SDS011;3852;52.284;8.032;2022-11-14T17:32:03;11.73;;;9.60;;
7621;SDS011;3852;52.284;8.032;2022-11-14T17:34:29;12.37;;;10.23;;
7621;SDS011;3852;52.284;8.032;2022-11-14T17:36:56;11.93;;;9.63;;
7621;SDS011;3852;52.284;8.032;2022-11-14T17:39:22;13.27;;;9.40;;
7621;SDS011;3852;52.284;8.032;2022-11-14T17:41:48;11.93;;;9.60;;
7621;SDS011;3852;52.284;8.032;2022-11-14T17:44:14;13.30;;;9.90;;
7621;SDS011;3852;52.284;8.032;2022-11-14T17:46:39;11.57;;;9.87;;
7621;SDS011;3852;52.284;8.032;2022-11-14T17:49:07;12.80;;;10.37;;